WetterOnline ( http://www.wetteronline.de )

Wetter aktuell Bremervörde

Aktuelles Wetter: Bremervörde (5m)

6-stündlich | Neueste Meldungen
Ortszeit Temperatur Wetter
Mi, 17.10. 20:00 14.4° C bedeckt
Mi, 17.10. 14:00 21.8° C wolkig
Mi, 17.10. 8:00 10.2° C Nebel
Mi, 17.10. 2:00 13.4° C wolkig
Di, 16.10. 20:00 16.7° C wolkig
Di, 16.10. 14:00 21.0° C bedeckt
Di, 16.10. 8:00 14.1° C bedeckt
Di, 16.10. 2:00 10.9° C leicht bewölkt
Ortszeit Temperatur Wetter
Mi, 17.10. 20:00 14.4° C bedeckt
Mi, 17.10. 19:50 14.4° C bedeckt
Mi, 17.10. 19:40 14.6° C bedeckt
Mi, 17.10. 19:30 14.9° C bedeckt
Mi, 17.10. 19:20 14.9° C bedeckt
Mi, 17.10. 19:10 14.8° C bedeckt
Mi, 17.10. 19:00 15.2° C bedeckt
Mi, 17.10. 18:30 16.1° C bedeckt
Mi, 17.10. 18:00 17.1° C bedeckt
Mi, 17.10. 17:30 20.6° C bewölkt
Mi, 17.10. 17:00 21.6° C bedeckt
Ortszeit Relative Feuchte Sichtweite
Mi, 17.10. 20:00 90% 3.6 km
Mi, 17.10. 14:00 54% 35 km
Mi, 17.10. 8:00 100% 100 m
Mi, 17.10. 2:00 97% 2.7 km
Di, 16.10. 20:00 91% 3.5 km
Di, 16.10. 14:00 60% 35 km
Di, 16.10. 8:00 84% 6 km
Di, 16.10. 2:00 93% 5.0 km
Ortszeit Relative Feuchte Sichtweite
Mi, 17.10. 20:00 90% 3.6 km
Mi, 17.10. 19:50 90% -
Mi, 17.10. 19:40 90% -
Mi, 17.10. 19:30 87% 4.3 km
Mi, 17.10. 19:20 87% -
Mi, 17.10. 19:10 86% -
Mi, 17.10. 19:00 83% 4.6 km
Mi, 17.10. 18:30 80% 4.6 km
Mi, 17.10. 18:00 77% 3.9 km
Mi, 17.10. 17:30 64% 20 km
Mi, 17.10. 17:00 60% 17 km
Ortszeit Niederschlagsmenge Niederschlagsart
Mi, 17.10. 20:00 0.0 l/m2 in 12 Std. -
Mi, 17.10. 14:00 0.0 l/m2 in 6 Std. -
Mi, 17.10. 8:00 0.0 l/m2 in 12 Std. -
Mi, 17.10. 2:00 0.0 l/m2 in 6 Std. -
Di, 16.10. 20:00 0.1 l/m2 in 12 Std. Regen
Di, 16.10. 14:00 0.1 l/m2 in 6 Std. Regen
Di, 16.10. 8:00 0.1 l/m2 in 12 Std. Regen
Di, 16.10. 2:00 0.0 l/m2 in 6 Std. -
Ortszeit Niederschlagsmenge Niederschlagsart
Mi, 17.10. 20:00 0.0 l/m2 in 1 Std. -
Mi, 17.10. 19:50 keine Meldung -
Mi, 17.10. 19:40 keine Meldung -
Mi, 17.10. 19:30 0.0 l/m2 in 1 Std. -
Mi, 17.10. 19:20 keine Meldung -
Mi, 17.10. 19:10 keine Meldung -
Mi, 17.10. 19:00 0.0 l/m2 in 1 Std. -
Mi, 17.10. 18:30 0.0 l/m2 in 1 Std. -
Mi, 17.10. 18:00 0.0 l/m2 in 1 Std. -
Mi, 17.10. 17:30 0.0 l/m2 in 1 Std. -
Mi, 17.10. 17:00 keine Meldung -
Ortszeit Stärke Spitze Richtung
km/h Bft. km/h Grad Sektor
Mi, 17.10. 20:00 7 2 25 340° N
Mi, 17.10. 14:00 9 2 17 210° SW
Mi, 17.10. 8:00 4 1 7 110° O
Mi, 17.10. 2:00 4 1 7 190° S
Di, 16.10. 20:00 4 1 14 150° SO
Di, 16.10. 14:00 11 2 18 260° W
Di, 16.10. 8:00 7 2 11 200° S
Di, 16.10. 2:00 0 0 7 - -
Ortszeit Stärke Spitze Richtung
km/h Bft. km/h Grad Sektor
Mi, 17.10. 20:00 7 2 14 340° N
Mi, 17.10. 19:50 7 2 - 340° N
Mi, 17.10. 19:40 7 2 - 340° N
Mi, 17.10. 19:30 7 2 11 360° N
Mi, 17.10. 19:20 7 2 - 360° N
Mi, 17.10. 19:10 7 2 - 360° N
Mi, 17.10. 19:00 7 2 18 350° N
Mi, 17.10. 18:30 11 2 18 350° N
Mi, 17.10. 18:00 13 3 24 350° N
Mi, 17.10. 17:30 7 2 25 330° NW
Mi, 17.10. 17:00 7 2 14 290° W
Ortszeit Untergrenze Bedeckung Gattung
total tief tief mittel hoch
Mi, 17.10. 20:00 6300 m 8/8 8/8 - - -
Mi, 17.10. 14:00 6000 m 8/8 8/8 - - -
Mi, 17.10. 8:00 7200 m 8/8 0/8 - - -
Mi, 17.10. 2:00 3600 m 8/8 3/8 - - -
Di, 16.10. 20:00 840 m 8/8 2/8 - - -
Di, 16.10. 14:00 3600 m 8/8 8/8 - - -
Di, 16.10. 8:00 3000 m 8/8 8/8 - - -
Di, 16.10. 2:00 3000 m 2/8 3/8 - - -
Ortszeit Bedeckungsgrad in Achtel und Wolkenuntergrenze
Mi, 17.10. 20:00 8(6300m) 8(6900m) 8(7800m)
Mi, 17.10. 19:50 8(6300m) 8(6900m) 8(7800m)
Mi, 17.10. 19:40 8(6300m) 8(7800m)
Mi, 17.10. 19:30 8(6600m) 8(7500m)
Mi, 17.10. 19:20 8(6600m) 8(7500m)
Mi, 17.10. 19:10 8(6600m)
Mi, 17.10. 19:00 8(6600m) 8(7500m)
Mi, 17.10. 18:30 8(6600m) 8(7500m)
Mi, 17.10. 18:00 8(6600m) 8(7500m) 8(10500m)
Mi, 17.10. 17:30 6(6600m) 8(7500m) 8(9000m)
Mi, 17.10. 17:00 8(6300m) 8(6900m) 8(7500m)
Ortszeit Luftdruck NN (hPa) Tendenz (hPa in 3 Std.)
Mi, 17.10. 20:00 1020 + 1,4
Mi, 17.10. 14:00 1019 - 0,5
Mi, 17.10. 8:00 1019 + 0,2
Mi, 17.10. 2:00 1019 - 0,4
Di, 16.10. 20:00 1020 + 0,7
Di, 16.10. 14:00 1019 + 0,1
Di, 16.10. 8:00 1017 + 0,7
Di, 16.10. 2:00 1016 + 0,8
Ortszeit Luftdruck NN (hPa) Tendenz (hPa in 3 Std.)
Mi, 17.10. 20:00 1020 + 1,4
Mi, 17.10. 19:50 1020 keine Meldung
Mi, 17.10. 19:40 1020 keine Meldung
Mi, 17.10. 19:30 1020 + 1,2
Mi, 17.10. 19:20 1020 keine Meldung
Mi, 17.10. 19:10 1020 keine Meldung
Mi, 17.10. 19:00 1019 + 1,0
Mi, 17.10. 18:30 1019 + 0,8
Mi, 17.10. 18:00 1019 + 0,5
Mi, 17.10. 17:30 1019 0,0
Mi, 17.10. 17:00 1018 - 0,3
Ortszeit Schneehöhe (cm)
Mi, 17.10. 20:00 -
Mi, 17.10. 14:00 -
Mi, 17.10. 8:00 -
Mi, 17.10. 2:00 -
Di, 16.10. 20:00 -
Di, 16.10. 14:00 -
Di, 16.10. 8:00 -
Di, 16.10. 2:00 -
Ortszeit Schneehöhe (cm)
Mi, 17.10. 20:00 -
Mi, 17.10. 19:50 -
Mi, 17.10. 19:40 -
Mi, 17.10. 19:30 -
Mi, 17.10. 19:20 -
Mi, 17.10. 19:10 -
Mi, 17.10. 19:00 -
Mi, 17.10. 18:30 -
Mi, 17.10. 18:00 -
Mi, 17.10. 17:30 -
Mi, 17.10. 17:00 -
Link zu dieser Seite / Seite empfehlen

Das Wetter in ...